Time;durP1;ratioP1;P1;durP2;ratioP2;P2;SDS_P1;SDS_P2;PMS_P1;PMS_P2;Temp;Humidity;BMP_temperature;BMP_pressure;BME280_temperature;BME280_humidity;BME280_pressure;Samples;Min_cycle;Max_cycle;Signal;HPM_P1;HPM_P2
2022/11/25 00:02:00;;;;;;;0.30;0.30;;;11.00;99.90;11.20;100620.00;;;;5013306;28;20202;-67
2022/11/25 00:04:43;;;;;;;1.93;1.83;;;11.00;99.90;11.10;100642.00;;;;5006873;28;20271;-67
2022/11/25 00:07:44;;;;;;;0.20;0.20;;;11.00;99.90;11.00;100646.00;;;;5045754;28;20227;-66
2022/11/25 00:10:30;;;;;;;0.20;0.20;;;11.00;99.90;11.70;100642.00;;;;5014078;28;20222;-66
2022/11/25 00:13:31;;;;;;;1.67;1.57;;;11.30;99.90;10.90;100651.00;;;;5029391;28;20212;-66
2022/11/25 00:16:51;;;;;;;0.50;0.50;;;11.10;99.90;11.40;100657.00;;;;5040799;28;20185;-66
2022/11/25 00:19:40;;;;;;;1.07;1.07;;;11.00;99.90;11.80;100645.00;;;;5026622;28;20278;-66
2022/11/25 00:22:46;;;;;;;1.53;0.83;;;11.20;99.90;11.20;100656.00;;;;5004143;28;20184;-67
2022/11/25 00:25:48;;;;;;;0.50;0.50;;;11.20;99.90;11.70;100654.00;;;;5014424;28;20192;-67
2022/11/25 00:28:52;;;;;;;1.30;1.07;;;11.20;99.90;11.30;100656.00;;;;5013833;28;20193;-67
2022/11/25 00:31:59;;;;;;;2.23;1.27;;;11.20;99.90;10.90;100678.00;;;;5031890;28;20675;-67
2022/11/25 00:35:00;;;;;;;0.90;0.90;;;11.00;99.90;11.00;100669.00;;;;5014887;28;20193;-67
2022/11/25 00:37:48;;;;;;;1.23;1.00;;;10.80;99.90;10.50;100681.00;;;;5015060;28;20196;-67
2022/11/25 00:40:17;;;;;;;0.50;0.50;;;10.60;99.90;10.80;100689.00;;;;5014405;28;20402;-67
2022/11/25 00:46:23;;;;;;;0.50;0.50;;;10.50;99.90;10.40;100707.00;;;;5013852;28;20244;-67
2022/11/25 00:49:16;;;;;;;0.50;0.50;;;10.40;99.90;10.70;100696.00;;;;5014379;28;20189;-67
2022/11/25 00:52:23;;;;;;;0.50;0.50;;;10.50;99.90;10.60;100709.00;;;;5013388;28;20215;-67
2022/11/25 00:56:11;;;;;;;0.50;0.50;;;10.40;99.90;10.50;100700.00;;;;4993320;28;20216;-66
2022/11/25 00:58:20;;;;;;;0.60;0.60;;;10.20;99.90;10.60;100704.00;;;;5021951;28;20227;-66
2022/11/25 01:01:04;;;;;;;0.60;0.60;;;10.30;99.90;10.70;100690.00;;;;5021397;28;20185;-66
2022/11/25 01:03:49;;;;;;;0.60;0.60;;;10.30;99.90;10.70;100692.00;;;;5027917;28;20199;-66
2022/11/25 01:06:15;;;;;;;0.90;0.90;;;10.30;99.90;10.40;100701.00;;;;5013341;28;20214;-66
2022/11/25 01:09:16;;;;;;;0.70;0.70;;;10.30;99.90;9.90;100630.00;;;;5013333;28;20550;-67
2022/11/25 01:11:59;;;;;;;0.70;0.70;;;10.10;99.90;9.80;100682.00;;;;5013302;28;20682;-66
2022/11/25 01:14:43;;;;;;;0.80;0.80;;;9.90;99.90;9.80;100665.00;;;;5013408;28;20197;-66
2022/11/25 01:17:47;;;;;;;0.77;0.77;;;9.80;99.90;9.70;100643.00;;;;5019713;28;20187;-66
2022/11/25 01:20:30;;;;;;;0.90;0.90;;;9.70;99.90;9.70;100640.00;;;;4993119;28;20659;-66
2022/11/25 01:23:26;;;;;;;0.90;0.90;;;9.70;99.90;9.60;100609.00;;;;5010380;28;20252;-66
2022/11/25 01:26:02;;;;;;;3.50;1.07;;;9.60;99.90;9.50;100650.00;;;;4999136;28;20188;-66
2022/11/25 01:28:53;;;;;;;0.80;0.80;;;9.50;99.90;9.50;100656.00;;;;5013037;28;20191;-67
2022/11/25 01:31:21;;;;;;;1.00;1.00;;;9.50;99.90;9.40;100656.00;;;;5019581;28;20779;-66
2022/11/25 01:34:13;;;;;;;1.10;1.10;;;9.50;99.90;9.50;100682.00;;;;5014288;28;20189;-66
2022/11/25 01:36:42;;;;;;;0.80;0.80;;;9.50;99.90;9.50;100673.00;;;;5012719;28;20608;-66
2022/11/25 01:39:15;;;;;;;0.70;0.70;;;9.50;99.90;9.60;100681.00;;;;5012632;28;20171;-65
2022/11/25 01:41:40;;;;;;;1.00;1.00;;;9.50;99.90;9.70;100678.00;;;;5012887;28;20190;-66
2022/11/25 01:44:38;;;;;;;0.90;0.90;;;9.50;99.90;9.80;100652.00;;;;5013034;28;20191;-66
2022/11/25 01:47:39;;;;;;;0.80;0.80;;;9.50;99.90;9.60;100691.00;;;;5001509;28;20642;-65
2022/11/25 01:50:43;;;;;;;0.90;0.90;;;9.50;99.90;9.80;100680.00;;;;5011244;28;20181;-65
2022/11/25 01:53:46;;;;;;;0.90;0.90;;;9.50;99.90;9.60;100675.00;;;;5012710;28;20293;-65
2022/11/25 01:56:35;;;;;;;1.17;1.17;;;9.50;99.90;9.90;100617.00;;;;5023571;28;20186;-65
2022/11/25 01:59:38;;;;;;;1.20;1.20;;;9.60;99.90;10.00;100635.00;;;;4996392;28;20198;-65
2022/11/25 02:02:08;;;;;;;1.50;1.50;;;9.70;99.90;10.10;100625.00;;;;5019080;28;20198;-65
2022/11/25 02:04:40;;;;;;;1.20;1.20;;;9.80;99.90;10.00;100613.00;;;;5012789;28;20190;-64
2022/11/25 02:07:35;;;;;;;1.30;1.30;;;9.70;99.90;10.00;100633.00;;;;5013186;28;20186;-65
2022/11/25 02:10:45;;;;;;;1.20;1.20;;;9.70;99.90;9.60;100668.00;;;;5011979;28;20181;-64
2022/11/25 02:13:50;;;;;;;1.00;1.00;;;9.60;99.90;9.40;100672.00;;;;5005234;28;20206;-64
2022/11/25 02:16:34;;;;;;;1.10;1.10;;;9.40;99.90;9.30;100669.00;;;;5001556;28;20221;-64
2022/11/25 02:23:25;;;;;;;0.90;0.90;;;9.40;99.90;9.60;100705.00;;;;4967549;28;20250;-64
2022/11/25 02:26:14;;;;;;;1.00;1.00;;;9.40;99.90;10.00;100694.00;;;;4980232;28;20278;-64
2022/11/25 02:29:17;;;;;;;1.00;1.00;;;9.60;99.90;9.50;100684.00;;;;4957908;28;20183;-65
2022/11/25 02:32:01;;;;;;;1.10;1.10;;;9.40;99.90;9.40;100689.00;;;;5000795;28;20233;-65
2022/11/25 02:34:29;;;;;;;1.83;1.83;;;9.40;99.90;9.40;100696.00;;;;5013346;28;20194;-65
2022/11/25 02:37:16;;;;;;;1.00;1.00;;;9.40;99.90;9.40;100690.00;;;;5044994;28;20703;-65
2022/11/25 02:39:47;;;;;;;1.03;1.03;;;9.30;99.90;9.20;100694.00;;;;5005963;28;20284;-65
2022/11/25 02:42:16;;;;;;;1.10;1.10;;;9.30;99.90;9.40;100708.00;;;;5011511;28;20308;-65
2022/11/25 02:44:50;;;;;;;1.00;1.00;;;9.30;99.90;9.40;100705.00;;;;5015423;28;20186;-65
2022/11/25 02:47:33;;;;;;;0.93;0.93;;;9.30;99.90;9.30;100716.00;;;;5011741;28;20668;-65
2022/11/25 02:50:16;;;;;;;0.90;0.90;;;9.20;99.90;9.40;100705.00;;;;5011625;28;20295;-64
2022/11/25 02:53:00;;;;;;;1.00;1.00;;;9.20;99.90;9.10;100700.00;;;;5008141;28;20201;-64
2022/11/25 02:55:43;;;;;;;1.33;1.33;;;9.20;99.90;9.20;100712.00;;;;5012999;28;20220;-64
2022/11/25 02:58:28;;;;;;;0.90;0.90;;;9.10;99.90;9.10;100707.00;;;;5007422;28;20669;-65
2022/11/25 03:01:12;;;;;;;0.80;0.80;;;9.10;99.90;9.20;100713.00;;;;5025721;28;20198;-64
2022/11/25 03:03:46;;;;;;;0.80;0.80;;;9.10;99.90;9.00;100709.00;;;;5000737;28;20196;-64
2022/11/25 03:06:14;;;;;;;1.00;1.00;;;9.00;99.90;9.10;100718.00;;;;5010128;28;20200;-65
2022/11/25 03:09:15;;;;;;;0.70;0.70;;;9.00;99.90;9.30;100731.00;;;;5012737;28;20198;-65
2022/11/25 03:12:19;;;;;;;0.90;0.90;;;9.00;99.90;9.10;100738.00;;;;5004100;28;20291;-65
2022/11/25 03:15:04;;;;;;;0.80;0.80;;;9.00;99.90;9.20;100685.00;;;;5011309;28;20191;-65
2022/11/25 03:17:50;;;;;;;1.63;1.53;;;9.10;99.90;9.10;100740.00;;;;5016937;28;20250;-65
2022/11/25 03:20:39;;;;;;;0.80;0.80;;;9.00;99.90;9.30;100745.00;;;;5015203;28;20655;-65
2022/11/25 03:23:23;;;;;;;0.80;0.80;;;9.10;99.90;8.80;100752.00;;;;5015010;28;20188;-65
2022/11/25 03:26:14;;;;;;;0.80;0.80;;;9.00;99.90;9.10;100752.00;;;;5016764;28;20188;-65
2022/11/25 03:29:15;;;;;;;4.00;1.43;;;9.00;99.90;9.10;100703.00;;;;5036443;28;20181;-65
2022/11/25 03:31:58;;;;;;;1.10;1.10;;;9.00;99.90;9.20;100763.00;;;;5037878;28;20297;-65
2022/11/25 03:35:03;;;;;;;0.80;0.80;;;9.00;99.90;9.10;100764.00;;;;5034184;28;20281;-65
2022/11/25 03:37:49;;;;;;;0.87;0.87;;;9.00;99.90;9.30;100773.00;;;;5016227;28;20195;-66
2022/11/25 03:40:19;;;;;;;0.83;0.83;;;9.00;99.90;9.20;100777.00;;;;5016031;28;20288;-65
2022/11/25 03:43:03;;;;;;;0.90;0.90;;;9.00;99.90;9.10;100776.00;;;;5025896;28;20543;-65
2022/11/25 03:45:48;;;;;;;0.80;0.80;;;9.00;99.90;9.00;100791.00;;;;5009511;28;20190;-65
2022/11/25 03:48:32;;;;;;;0.80;0.80;;;9.00;99.90;9.40;100786.00;;;;5014579;28;20191;-65
2022/11/25 03:51:18;;;;;;;0.80;0.80;;;9.00;99.90;9.20;100782.00;;;;4998869;28;20553;-65
2022/11/25 03:54:01;;;;;;;0.90;0.90;;;9.00;99.90;9.20;100781.00;;;;5015905;28;20190;-65
2022/11/25 03:56:29;;;;;;;0.80;0.80;;;9.00;99.90;9.20;100784.00;;;;5015289;28;20196;-65
2022/11/25 03:59:14;;;;;;;0.90;0.90;;;9.00;99.90;9.00;100790.00;;;;5016197;28;20656;-65
2022/11/25 04:02:17;;;;;;;0.80;0.80;;;9.00;99.90;9.10;100750.00;;;;5015774;28;20188;-65
2022/11/25 04:04:48;;;;;;;1.10;1.10;;;9.00;99.90;9.20;100795.00;;;;5011722;28;20195;-65
2022/11/25 04:07:25;;;;;;;1.20;1.20;;;9.00;99.90;9.30;100797.00;;;;5012148;28;20278;-65
2022/11/25 04:10:29;;;;;;;1.20;1.20;;;9.00;99.90;9.30;100793.00;;;;5048027;28;20199;-65
2022/11/25 04:12:57;;;;;;;1.53;1.50;;;9.10;99.90;9.20;100798.00;;;;5013874;28;20213;-65
2022/11/25 04:15:28;;;;;;;1.10;1.10;;;9.10;99.90;9.30;100792.00;;;;5014369;28;20251;-65
2022/11/25 04:18:14;;;;;;;1.03;1.03;;;9.10;99.90;9.40;100807.00;;;;5014049;28;20215;-65
2022/11/25 04:21:38;;;;;;;1.07;1.07;;;9.20;99.90;9.40;100828.00;;;;5009136;28;20187;-65
2022/11/25 04:24:32;;;;;;;1.10;1.10;;;9.20;99.90;9.30;100821.00;;;;5007509;28;20673;-65
2022/11/25 04:27:18;;;;;;;1.30;1.30;;;9.20;99.90;10.00;100839.00;;;;5020435;28;20215;-65
2022/11/25 04:30:03;;;;;;;1.20;1.20;;;9.40;99.90;10.20;100844.00;;;;5044078;28;20188;-65
2022/11/25 04:32:48;;;;;;;1.30;1.30;;;9.60;99.90;10.20;100827.00;;;;5015263;28;20235;-65
2022/11/25 04:35:32;;;;;;;5.30;4.80;;;9.70;99.90;10.20;100826.00;;;;5007646;28;20198;-65
2022/11/25 04:38:35;;;;;;;1.20;1.20;;;9.80;99.90;9.70;100812.00;;;;5027709;28;20194;-65
2022/11/25 04:41:22;;;;;;;1.30;1.30;;;9.50;99.90;9.60;100819.00;;;;5013531;28;20193;-65
2022/11/25 04:44:15;;;;;;;1.13;1.13;;;9.50;99.90;9.60;100814.00;;;;4997518;28;20187;-65
2022/11/25 04:47:17;;;;;;;1.20;1.20;;;9.40;99.90;9.50;100818.00;;;;5022824;28;20189;-65
2022/11/25 04:50:12;;;;;;;1.20;1.20;;;9.40;99.90;9.50;100825.00;;;;5013064;28;20196;-65
2022/11/25 04:52:58;;;;;;;1.17;1.17;;;9.30;99.90;9.90;100827.00;;;;5009368;28;20213;-65
2022/11/25 04:56:17;;;;;;;1.27;1.27;;;9.40;99.90;10.00;100850.00;;;;5013766;28;20212;-65
2022/11/25 05:02:41;;;;;;;0.90;0.90;;;9.40;99.90;9.70;100844.00;;;;5026400;28;20252;-65
2022/11/25 05:05:47;;;;;;;1.10;1.10;;;9.40;99.90;9.90;100851.00;;;;5013042;28;20196;-65
2022/11/25 05:08:50;;;;;;;1.10;1.10;;;9.40;99.90;9.70;100851.00;;;;5014104;28;20213;-65
2022/11/25 05:11:56;;;;;;;1.60;1.43;;;9.40;99.90;9.60;100844.00;;;;5013080;28;20272;-65
2022/11/25 05:15:15;;;;;;;1.37;1.37;;;9.40;99.90;9.40;100845.00;;;;5021593;28;20560;-65
2022/11/25 05:18:09;;;;;;;1.30;1.30;;;9.30;99.90;9.70;100805.00;;;;5041806;28;20233;-65
2022/11/25 05:21:03;;;;;;;1.60;1.50;;;9.30;99.90;9.30;100853.00;;;;5012624;28;20656;-65
2022/11/25 05:23:49;;;;;;;1.20;1.20;;;9.20;99.90;9.20;100844.00;;;;5025967;28;20200;-65
2022/11/25 05:26:48;;;;;;;1.50;1.50;;;9.20;99.90;9.10;100856.00;;;;5025289;28;20193;-65
2022/11/25 05:29:56;;;;;;;1.43;1.43;;;9.10;99.90;9.10;100850.00;;;;5007197;28;20213;-65
2022/11/25 05:33:05;;;;;;;1.87;1.73;;;9.00;99.90;9.20;100828.00;;;;4996220;28;20635;-65
2022/11/25 05:36:17;;;;;;;1.40;1.40;;;9.00;99.90;9.30;100876.00;;;;5000997;28;20198;-65
2022/11/25 05:39:12;;;;;;;1.30;1.30;;;9.00;99.90;9.20;100874.00;;;;5017194;28;20190;-65
2022/11/25 05:42:16;;;;;;;1.20;1.20;;;9.00;99.90;9.40;100890.00;;;;5012293;28;20206;-65
2022/11/25 05:45:02;;;;;;;1.30;1.30;;;9.10;99.90;9.60;100890.00;;;;5021453;28;20202;-65
2022/11/25 05:48:14;;;;;;;1.20;1.20;;;9.20;99.90;9.20;100893.00;;;;5014065;28;20186;-65
2022/11/25 05:51:35;;;;;;;1.30;1.30;;;9.00;99.90;9.60;100856.00;;;;5009728;28;20640;-65
2022/11/25 05:54:43;;;;;;;1.50;1.50;;;9.10;99.90;9.40;100915.00;;;;5012708;28;20220;-65
2022/11/25 05:57:37;;;;;;;2.40;1.67;;;9.10;99.90;9.20;100888.00;;;;5009626;28;20272;-65
2022/11/25 06:01:01;;;;;;;1.30;1.30;;;9.10;99.90;9.40;100907.00;;;;5005305;28;20647;-65
2022/11/25 06:04:08;;;;;;;1.40;1.40;;;9.20;99.90;9.30;100852.00;;;;5010860;28;20232;-65
2022/11/25 06:07:09;;;;;;;1.40;1.40;;;9.00;99.90;9.30;100870.00;;;;5001554;28;20205;-65
2022/11/25 06:09:55;;;;;;;1.50;1.50;;;9.00;99.90;9.50;100910.00;;;;4994373;28;20265;-65
2022/11/25 06:12:48;;;;;;;1.40;1.40;;;9.10;99.90;9.80;100908.00;;;;5013257;28;20213;-65
2022/11/25 06:16:09;;;;;;;1.67;1.67;;;9.10;99.90;9.30;100916.00;;;;5044984;28;20595;-65
2022/11/25 06:19:08;;;;;;;1.80;1.80;;;9.00;99.90;9.30;100912.00;;;;5020664;28;20192;-65
2022/11/25 06:22:04;;;;;;;1.50;1.50;;;9.00;99.90;8.90;100916.00;;;;5020045;28;20677;-65
2022/11/25 06:24:50;;;;;;;1.40;1.40;;;8.80;99.90;8.70;100914.00;;;;5039557;28;20184;-65
2022/11/25 06:27:46;;;;;;;1.30;1.30;;;8.70;99.90;8.80;100915.00;;;;5003347;28;20189;-65
2022/11/25 06:30:42;;;;;;;1.20;1.20;;;8.60;99.90;8.80;100923.00;;;;5023104;28;20264;-65
2022/11/25 06:33:45;;;;;;;1.30;1.30;;;8.60;99.90;8.90;100934.00;;;;5022950;28;20263;-65
2022/11/25 06:36:21;;;;;;;1.40;1.40;;;8.60;99.90;8.90;100928.00;;;;5001590;28;20208;-65
2022/11/25 06:39:28;;;;;;;1.37;1.37;;;8.60;99.90;8.70;100932.00;;;;5009370;28;20221;-66
2022/11/25 06:42:33;;;;;;;1.27;1.27;;;8.50;99.90;8.50;100918.00;;;;5012547;28;20207;-65
2022/11/25 06:45:54;;;;;;;1.30;1.30;;;8.50;99.90;8.70;100959.00;;;;5007321;28;20279;-65
2022/11/25 06:49:00;;;;;;;1.47;1.47;;;8.40;99.90;8.50;100971.00;;;;5020594;28;20185;-65
2022/11/25 06:52:01;;;;;;;1.50;1.50;;;8.40;99.90;8.60;100972.00;;;;5006860;28;20193;-65
2022/11/25 06:54:54;;;;;;;1.30;1.30;;;8.40;99.90;8.40;100967.00;;;;4999473;28;20269;-65
2022/11/25 06:57:55;;;;;;;1.30;1.30;;;8.40;99.90;8.50;100974.00;;;;5030737;28;20187;-65
2022/11/25 07:01:22;;;;;;;1.10;1.10;;;8.40;99.90;8.70;100973.00;;;;5016330;28;20193;-65
2022/11/25 07:04:23;;;;;;;1.30;1.30;;;8.40;99.90;8.20;100978.00;;;;5015993;28;20429;-65
2022/11/25 07:07:05;;;;;;;1.10;1.10;;;8.30;99.90;8.30;100995.00;;;;5046397;28;20208;-65
2022/11/25 07:09:55;;;;;;;1.20;1.20;;;8.30;99.90;8.30;101001.00;;;;5027578;28;20269;-65
2022/11/25 07:12:46;;;;;;;1.20;1.20;;;8.20;99.90;8.70;100996.00;;;;5013801;28;20233;-66
2022/11/25 07:15:44;;;;;;;1.10;1.10;;;8.40;99.90;8.30;101011.00;;;;5015632;28;20183;-65
2022/11/25 07:18:34;;;;;;;1.40;1.40;;;8.30;99.90;8.90;101038.00;;;;5002213;28;20328;-65
2022/11/25 07:21:32;;;;;;;1.20;1.20;;;8.50;99.90;9.10;101036.00;;;;5010705;28;20192;-65
2022/11/25 07:24:35;;;;;;;1.80;1.70;;;8.50;99.90;8.80;101032.00;;;;5016604;28;20184;-65
2022/11/25 07:27:42;;;;;;;1.30;1.30;;;8.60;99.90;9.00;101038.00;;;;5008036;28;20264;-65
2022/11/25 07:30:51;;;;;;;1.30;1.30;;;8.60;99.90;8.90;101036.00;;;;5013415;28;20197;-65
2022/11/25 07:34:16;;;;;;;1.10;1.10;;;8.70;99.90;8.60;101041.00;;;;5014961;28;20215;-65
2022/11/25 07:36:54;;;;;;;1.97;1.97;;;8.50;99.90;8.90;101035.00;;;;5015334;28;20196;-66
2022/11/25 07:39:44;;;;;;;1.30;1.30;;;8.60;99.90;9.20;101059.00;;;;5007846;28;20192;-65
2022/11/25 07:42:12;;;;;;;1.20;1.20;;;8.70;99.90;9.40;101064.00;;;;5014804;28;20667;-66
2022/11/25 07:44:40;;;;;;;2.80;2.70;;;8.80;99.90;9.30;101053.00;;;;5016319;28;20186;-65
2022/11/25 07:47:06;;;;;;;1.30;1.30;;;8.90;99.90;9.10;101039.00;;;;5016097;28;20278;-65
2022/11/25 07:49:52;;;;;;;1.33;1.33;;;8.90;99.90;9.20;101055.00;;;;5015807;28;20705;-65
2022/11/25 07:52:25;;;;;;;2.57;2.30;;;9.00;99.90;8.80;101042.00;;;;5045840;28;20552;-66
2022/11/25 07:55:17;;;;;;;1.20;1.20;;;8.90;99.90;8.90;101027.00;;;;5034777;28;20182;-66
2022/11/25 07:58:11;;;;;;;1.47;1.47;;;8.90;99.90;9.30;101068.00;;;;5014562;28;20251;-66
2022/11/25 08:01:21;;;;;;;1.53;1.47;;;9.00;99.90;9.20;101076.00;;;;5014412;28;20192;-66
2022/11/25 08:03:54;;;;;;;1.10;1.10;;;9.00;99.90;9.10;101078.00;;;;5046131;28;20179;-66
2022/11/25 08:06:31;;;;;;;7.40;1.33;;;9.00;99.90;8.80;101084.00;;;;5015682;28;20281;-66
2022/11/25 08:12:18;;;;;;;1.20;1.20;;;9.10;99.90;10.00;101102.00;;;;5015210;28;20591;-67
2022/11/25 08:15:09;;;;;;;1.87;1.87;;;9.30;99.90;10.00;101102.00;;;;5024384;28;20189;-67
2022/11/25 08:17:40;;;;;;;1.30;1.30;;;9.50;99.90;9.40;101101.00;;;;5009097;28;20183;-67
2022/11/25 08:21:08;;;;;;;1.30;1.30;;;9.30;99.90;9.70;101105.00;;;;5002633;28;20186;-66
2022/11/25 08:23:51;;;;;;;1.30;1.30;;;9.30;99.90;10.10;101099.00;;;;5020871;28;20190;-67
2022/11/25 08:26:39;;;;;;;1.53;1.53;;;9.50;99.90;9.60;101103.00;;;;5015451;28;20285;-67
2022/11/25 08:29:22;;;;;;;1.40;1.40;;;9.40;99.90;9.30;101103.00;;;;5003951;28;20217;-67
2022/11/25 08:31:50;;;;;;;4.53;1.87;;;9.30;99.90;9.00;101099.00;;;;5014725;28;20250;-67
2022/11/25 08:34:28;;;;;;;1.30;1.30;;;9.10;99.90;9.30;101110.00;;;;5016823;28;20266;-67
2022/11/25 08:37:09;;;;;;;1.20;1.20;;;9.10;99.90;9.60;101110.00;;;;5009553;28;20186;-67
2022/11/25 08:40:13;;;;;;;1.20;1.20;;;9.20;99.90;9.30;101104.00;;;;5014313;28;20191;-67
2022/11/25 08:42:59;;;;;;;1.10;1.10;;;9.10;99.90;9.30;101101.00;;;;5013998;28;20198;-67
2022/11/25 08:45:43;;;;;;;1.10;1.10;;;9.10;99.90;9.50;101116.00;;;;4998613;28;20208;-67
2022/11/25 08:48:23;;;;;;;1.40;1.40;;;9.20;99.90;9.50;101065.00;;;;5014564;28;20634;-67
2022/11/25 08:51:31;;;;;;;2.30;1.80;;;9.20;99.90;9.80;101127.00;;;;5013721;28;20189;-67
2022/11/25 08:54:15;;;;;;;1.40;1.40;;;9.40;99.90;9.70;101078.00;;;;5012639;28;20643;-67
2022/11/25 08:57:11;;;;;;;1.33;1.33;;;9.50;99.90;10.00;101135.00;;;;5001455;28;20186;-67
2022/11/25 08:59:45;;;;;;;2.33;2.23;;;9.50;99.90;10.20;101095.00;;;;5042644;28;20186;-67
2022/11/25 09:02:48;;;;;;;1.30;1.30;;;9.70;99.90;10.90;101117.00;;;;5013475;28;20185;-67
2022/11/25 09:05:52;;;;;;;1.80;1.80;;;10.10;99.90;10.00;101147.00;;;;5012920;28;20197;-67
2022/11/25 09:08:40;;;;;;;1.63;1.63;;;10.00;99.90;9.90;101153.00;;;;5011452;28;20261;-67
2022/11/25 09:11:41;;;;;;;1.63;1.63;;;10.00;99.90;10.40;101151.00;;;;5044398;28;20238;-67
2022/11/25 09:14:32;;;;;;;2.10;2.00;;;9.90;99.90;10.30;101147.00;;;;5008648;28;20192;-67
2022/11/25 09:17:04;;;;;;;1.90;1.90;;;10.20;99.90;10.30;101149.00;;;;5007235;28;20625;-65
2022/11/25 09:19:32;;;;;;;1.70;1.70;;;10.10;99.90;11.10;101157.00;;;;5014063;28;20188;-67
2022/11/25 09:22:15;;;;;;;1.70;1.70;;;10.40;99.90;10.80;101168.00;;;;5018976;28;20222;-68
2022/11/25 09:24:44;;;;;;;2.20;2.20;;;10.70;99.90;11.60;101173.00;;;;5012565;28;20201;-68
2022/11/25 09:27:12;;;;;;;1.90;1.90;;;10.90;99.90;12.00;101173.00;;;;5014543;28;20189;-67
2022/11/25 09:29:41;;;;;;;2.30;2.30;;;11.20;99.90;12.20;101172.00;;;;5026350;28;20642;-70
2022/11/25 09:32:09;;;;;;;13.63;2.47;;;11.50;99.90;11.80;101166.00;;;;5045638;28;20203;-67
2022/11/25 09:34:55;;;;;;;2.43;2.33;;;11.40;99.90;11.70;101152.00;;;;5025002;28;20203;-67
2022/11/25 09:37:21;;;;;;;1.53;1.53;;;11.40;99.90;11.90;101182.00;;;;5012755;28;20258;-68
2022/11/25 09:40:18;;;;;;;1.80;1.80;;;11.40;99.90;12.30;101188.00;;;;5012717;28;20662;-68
2022/11/25 09:46:41;;;;;;;1.20;1.20;;;11.60;99.90;11.50;101166.00;;;;5021867;28;20562;-69
2022/11/25 09:49:50;;;;;;;1.00;1.00;;;11.40;99.90;11.20;101160.00;;;;5004673;28;20235;-72
2022/11/25 09:52:23;;;;;;;0.70;0.70;;;11.30;99.90;10.80;101203.00;;;;5002467;28;20574;-67
2022/11/25 09:55:04;;;;;;;1.80;1.20;;;10.90;99.90;10.70;101206.00;;;;5013576;28;20212;-67
2022/11/25 09:57:44;;;;;;;0.60;0.60;;;11.00;99.90;11.10;101175.00;;;;5013578;28;20649;-69
2022/11/25 10:00:20;;;;;;;3.33;2.03;;;11.00;99.90;11.00;101212.00;;;;5008732;28;20194;-66
2022/11/25 10:03:51;;;;;;;0.90;0.90;;;11.10;99.90;11.20;101179.00;;;;5013910;28;20189;-69
2022/11/25 10:06:20;;;;;;;2.07;0.87;;;11.10;99.90;10.70;101221.00;;;;5000959;28;20205;-63
2022/11/25 10:08:57;;;;;;;1.00;1.00;;;10.90;99.90;11.30;101225.00;;;;5022359;28;20197;-68
2022/11/25 10:11:49;;;;;;;1.93;1.70;;;11.00;99.90;11.00;101234.00;;;;5009805;28;20614;-67
2022/11/25 10:14:48;;;;;;;0.67;0.67;;;11.00;99.90;11.20;101238.00;;;;5012233;28;20276;-65
2022/11/25 10:17:48;;;;;;;2.80;2.70;;;11.10;99.90;12.60;101243.00;;;;5013882;28;20191;-75
2022/11/25 10:20:33;;;;;;;0.60;0.60;;;11.60;99.90;11.90;101245.00;;;;5005530;28;20190;-67
2022/11/25 10:33:57;;;;;;;0.70;0.70;;;11.00;99.90;12.00;101264.00;;;;5070390;28;20557;-69
2022/11/25 10:36:32;;;;;;;2.53;1.27;;;11.50;99.90;11.40;101272.00;;;;5045900;28;20663;-67
2022/11/25 10:39:23;;;;;;;1.10;0.97;;;11.60;99.90;11.60;101276.00;;;;5049283;28;20184;-68
2022/11/25 10:42:06;;;;;;;5.60;0.97;;;11.50;99.90;12.00;101280.00;;;;5032982;28;20241;-69
2022/11/25 10:44:38;;;;;;;0.50;0.50;;;11.80;99.90;11.30;101293.00;;;;5049999;28;20180;-67
2022/11/25 10:48:05;;;;;;;0.50;0.50;;;11.50;99.90;11.20;101292.00;;;;5047229;28;20647;-72
2022/11/25 10:51:33;;;;;;;0.70;0.70;;;11.40;99.90;11.40;101303.00;;;;5033766;28;20188;-68
2022/11/25 10:54:26;;;;;;;1.70;0.80;;;11.30;99.90;11.40;101261.00;;;;5047063;28;20211;-68
2022/11/25 10:57:01;;;;;;;3.10;1.73;;;11.50;99.90;11.30;101302.00;;;;5048630;28;20188;-67
2022/11/25 10:59:36;;;;;;;1.07;0.60;;;11.50;99.90;11.30;101308.00;;;;5048721;28;20175;-68
2022/11/25 11:02:15;;;;;;;0.90;0.90;;;11.40;99.90;11.10;101270.00;;;;5048513;28;20701;-63
2022/11/25 11:04:57;;;;;;;1.43;0.77;;;11.30;99.90;11.30;101318.00;;;;5049670;28;20213;-70
2022/11/25 11:07:32;;;;;;;1.03;1.03;;;11.40;99.90;11.20;101310.00;;;;5041520;28;20250;-68
2022/11/25 11:10:25;;;;;;;3.83;1.20;;;11.50;99.90;11.50;101323.00;;;;5049718;28;20185;-72
2022/11/25 11:13:32;;;;;;;4.30;1.43;;;11.50;99.90;11.90;101316.00;;;;5047905;28;20200;-68
2022/11/25 11:15:58;;;;;;;4.63;1.77;;;11.70;99.90;11.70;101336.00;;;;5030269;28;20212;-68
2022/11/25 11:18:36;;;;;;;3.00;1.87;;;11.70;99.90;11.40;101340.00;;;;5048160;28;20195;-73
2022/11/25 11:21:36;;;;;;;0.40;0.40;;;11.60;99.90;11.50;101306.00;;;;5049420;28;20185;-71
2022/11/25 11:27:42;;;;;;;3.90;1.03;;;11.70;99.90;12.60;101352.00;;;;5047946;28;20254;-70
2022/11/25 11:30:43;;;;;;;0.30;0.30;;;12.20;99.90;11.60;101363.00;;;;5055474;28;20252;-69
2022/11/25 11:37:43;;;;;;;3.00;1.30;;;12.00;99.90;11.50;101359.00;;;;4945756;28;20205;-69
2022/11/25 11:40:50;;;;;;;0.37;0.30;;;11.80;99.90;12.30;101360.00;;;;5019448;28;20201;-69
2022/11/25 11:43:58;;;;;;;0.27;0.27;;;12.00;99.90;11.90;101365.00;;;;5032897;28;20205;-68
2022/11/25 11:47:36;;;;;;;1.90;1.40;;;12.20;99.90;12.60;101361.00;;;;5029408;28;20213;-70
2022/11/25 11:50:32;;;;;;;1.60;1.03;;;12.40;99.90;11.90;101330.00;;;;4972317;28;20384;-69
2022/11/25 11:53:22;;;;;;;0.80;0.80;;;12.30;99.90;12.00;101370.00;;;;4903740;29;20235;-69
2022/11/25 11:56:10;;;;;;;2.37;0.87;;;12.10;99.90;12.20;101374.00;;;;4894233;29;20201;-69
2022/11/25 11:59:13;;;;;;;0.77;0.77;;;12.30;99.90;11.50;101375.00;;;;4964865;28;20809;-68
2022/11/25 12:02:19;;;;;;;6.57;1.08;;;12.00;99.90;11.90;101378.00;;;;4965592;28;20441;-68
2022/11/25 12:05:05;;;;;;;5.00;1.37;;;12.10;99.90;11.90;101380.00;;;;4978302;28;20599;-68
2022/11/25 12:07:58;;;;;;;9.53;1.53;;;12.10;99.90;12.40;101389.00;;;;4976299;28;20191;-68
2022/11/25 12:10:44;;;;;;;0.90;0.90;;;12.30;99.90;12.20;101342.00;;;;4970622;28;20662;-68
2022/11/25 12:13:39;;;;;;;4.47;1.27;;;12.30;99.90;12.30;101356.00;;;;4975819;28;20680;-69
2022/11/25 12:16:34;;;;;;;6.13;1.73;;;12.30;99.90;12.20;101398.00;;;;5035627;28;20271;-68
2022/11/25 12:20:00;;;;;;;3.33;1.63;;;12.40;99.90;12.60;101390.00;;;;5026421;28;20208;-68
2022/11/25 12:22:57;;;;;;;5.80;1.57;;;12.30;99.90;12.10;101411.00;;;;5026785;28;20227;-69
2022/11/25 12:25:53;;;;;;;0.53;0.47;;;12.40;99.90;12.20;101414.00;;;;5031429;28;20690;-69
2022/11/25 12:29:02;;;;;;;0.20;0.20;;;12.20;99.90;12.20;101414.00;;;;5033628;28;20191;-69
2022/11/25 12:32:02;;;;;;;6.80;0.73;;;12.40;99.90;12.50;101428.00;;;;5027589;28;20225;-68
2022/11/25 12:35:09;;;;;;;2.57;0.97;;;12.50;99.90;12.60;101358.00;;;;5033831;28;20276;-68
2022/11/25 12:38:03;;;;;;;1.37;0.87;;;12.50;99.90;12.80;101422.00;;;;5024553;28;20185;-68
2022/11/25 12:40:57;;;;;;;1.40;1.17;;;12.80;99.90;12.10;101421.00;;;;5027131;28;20650;-67
2022/11/25 12:47:09;;;;;;;0.40;0.40;;;12.60;99.90;12.20;101421.00;;;;4993014;28;20647;-68
2022/11/25 12:49:51;;;;;;;3.70;0.83;;;12.60;99.90;12.40;101436.00;;;;5022727;28;20191;-68
2022/11/25 12:52:38;;;;;;;4.33;1.77;;;12.50;99.90;12.30;101435.00;;;;5031028;28;20286;-68
2022/11/25 12:55:20;;;;;;;0.63;0.60;;;12.50;99.90;12.30;101398.00;;;;5032970;28;20666;-67
2022/11/25 12:58:04;;;;;;;11.50;1.87;;;12.40;99.90;12.50;101450.00;;;;5033270;28;20648;-67
2022/11/25 13:00:45;;;;;;;0.67;0.47;;;12.40;99.90;12.60;101447.00;;;;5034104;28;20186;-67
2022/11/25 13:03:44;;;;;;;0.20;0.20;;;12.50;99.90;13.20;101460.00;;;;5034337;28;20221;-67
2022/11/25 13:07:03;;;;;;;5.20;1.77;;;12.70;99.90;12.40;101459.00;;;;5021504;28;20230;-67
2022/11/25 13:10:11;;;;;;;0.50;0.50;;;12.60;99.90;12.40;101452.00;;;;5023197;28;20214;-67
2022/11/25 13:13:40;;;;;;;0.83;0.83;;;12.30;99.90;12.60;101408.00;;;;5026992;28;20205;-68
2022/11/25 13:16:11;;;;;;;0.27;0.27;;;12.50;99.90;12.20;101461.00;;;;5023234;28;20761;-68
2022/11/25 13:18:47;;;;;;;0.20;0.20;;;12.20;99.90;12.70;101419.00;;;;5024325;28;20192;-68
2022/11/25 13:21:23;;;;;;;0.67;0.47;;;12.30;99.90;12.00;101455.00;;;;5033740;28;20193;-68